createdAt,value
2022-09-03T00:01:25.442Z,101042.58
2022-09-03T00:03:59.698Z,101041.67
2022-09-03T00:06:38.625Z,101043.16
2022-09-03T00:09:16.114Z,101041.02
2022-09-03T00:11:56.167Z,101045.21
2022-09-03T00:14:33.292Z,101047.38
2022-09-03T00:17:06.111Z,101042.05
2022-09-03T00:19:37.412Z,101043.67
2022-09-03T00:22:19.777Z,101045.64
2022-09-03T00:24:50.426Z,101045.20
2022-09-03T00:27:22.796Z,101044.13
2022-09-03T00:30:04.884Z,101043.08
2022-09-03T00:32:59.519Z,101039.21
2022-09-03T00:35:32.050Z,101033.85
2022-09-03T00:38:01.045Z,101036.50
2022-09-03T00:40:51.743Z,101034.92
2022-09-03T00:43:38.384Z,101034.54
2022-09-03T00:46:25.074Z,101038.58
2022-09-03T00:49:14.567Z,101039.55
2022-09-03T00:51:56.727Z,101041.55
2022-09-03T00:54:42.206Z,101045.07
2022-09-03T00:57:26.007Z,101052.72
2022-09-03T01:00:21.969Z,101054.75
2022-09-03T01:03:08.169Z,101057.48
2022-09-03T01:05:42.189Z,101053.91
2022-09-03T01:08:32.395Z,101053.06
2022-09-03T01:11:41.497Z,101051.85
2022-09-03T01:14:20.521Z,101051.10
2022-09-03T01:17:17.883Z,101052.91
2022-09-03T01:20:11.878Z,101052.51
2022-09-03T01:22:54.775Z,101052.79
2022-09-03T01:25:32.599Z,101053.70
2022-09-03T01:28:35.155Z,101055.33
2022-09-03T01:31:12.275Z,101052.37
2022-09-03T01:34:01.706Z,101047.20
2022-09-03T01:36:48.109Z,101043.27
2022-09-03T01:39:50.512Z,101041.55
2022-09-03T01:42:46.338Z,101046.23
2022-09-03T01:45:41.876Z,101043.40
2022-09-03T01:48:47.606Z,101040.37
2022-09-03T01:51:22.384Z,101037.23
2022-09-03T01:54:25.283Z,101036.19
2022-09-03T01:57:15.110Z,101037.30
2022-09-03T02:00:08.842Z,101030.60
2022-09-03T02:02:37.277Z,101031.05
2022-09-03T02:05:21.386Z,101028.40
2022-09-03T02:07:53.628Z,101028.14
2022-09-03T02:10:32.451Z,101033.73
2022-09-03T02:13:09.874Z,101031.30
2022-09-03T02:15:42.469Z,101026.76
2022-09-03T02:18:18.166Z,101027.02
2022-09-03T02:20:48.159Z,101026.21
2022-09-03T02:23:17.072Z,101026.64
2022-09-03T02:25:59.480Z,101025.10
2022-09-03T02:28:29.594Z,101028.80
2022-09-03T02:30:58.522Z,101032.85
2022-09-03T02:33:27.395Z,101030.63
2022-09-03T02:35:55.550Z,101028.86
2022-09-03T02:38:26.793Z,101029.52
2022-09-03T02:40:55.406Z,101030.48
2022-09-03T02:43:29.898Z,101027.70
2022-09-03T02:46:03.053Z,101025.56
2022-09-03T02:48:31.058Z,101031.44
2022-09-03T02:50:59.023Z,101027.47
2022-09-03T02:53:29.143Z,101028.45
2022-09-03T02:56:01.618Z,101026.35
2022-09-03T02:58:31.834Z,101025.59
2022-09-03T03:01:00.175Z,101027.94
2022-09-03T03:03:28.720Z,101025.34
2022-09-03T03:06:00.761Z,101025.41
2022-09-03T03:08:30.571Z,101026.39
2022-09-03T03:10:59.435Z,101029.91
2022-09-03T03:13:28.571Z,101028.30
2022-09-03T03:15:58.775Z,101030.23
2022-09-03T03:18:27.873Z,101029.49
2022-09-03T03:20:56.281Z,101032.15
2022-09-03T03:23:24.417Z,101037.04
2022-09-03T03:25:52.155Z,101045.80
2022-09-03T03:28:20.493Z,101040.48
2022-09-03T03:30:49.293Z,101043.27
2022-09-03T03:33:17.316Z,101042.81
2022-09-03T03:35:45.282Z,101043.77
2022-09-03T03:38:13.076Z,101040.96
2022-09-03T03:40:41.011Z,101043.42
2022-09-03T03:43:08.883Z,101047.14
2022-09-03T03:45:36.729Z,101048.42
2022-09-03T03:48:04.914Z,101046.16
2022-09-03T03:50:33.090Z,101044.84
2022-09-03T03:53:01.824Z,101045.95
2022-09-03T03:55:35.127Z,101046.66
2022-09-03T03:58:03.344Z,101048.67
2022-09-03T04:00:31.359Z,101048.64
2022-09-03T04:02:59.667Z,101050.23
2022-09-03T04:05:27.557Z,101051.36
2022-09-03T04:08:02.998Z,101049.09
2022-09-03T04:10:31.067Z,101051.58
2022-09-03T04:12:58.831Z,101055.94
2022-09-03T04:15:27.021Z,101054.73
2022-09-03T04:17:55.584Z,101054.09
2022-09-03T04:20:23.348Z,101053.24
2022-09-03T04:22:52.042Z,101052.60
2022-09-03T04:25:20.102Z,101051.12
2022-09-03T04:27:47.865Z,101050.27
2022-09-03T04:30:15.769Z,101050.44
2022-09-03T04:32:53.734Z,101052.01
2022-09-03T04:35:26.516Z,101054.30
2022-09-03T04:37:55.425Z,101056.61
2022-09-03T04:40:23.383Z,101055.32
2022-09-03T04:42:52.696Z,101055.45
2022-09-03T04:45:20.639Z,101057.94
2022-09-03T04:48:02.534Z,101063.59
2022-09-03T04:50:32.651Z,101063.92
2022-09-03T04:53:07.133Z,101069.64
2022-09-03T04:55:38.014Z,101073.70
2022-09-03T04:58:08.071Z,101073.56
2022-09-03T05:00:40.011Z,101077.60
2022-09-03T05:03:07.787Z,101075.09
2022-09-03T05:05:35.722Z,101075.60
2022-09-03T05:08:04.391Z,101075.00
2022-09-03T05:10:32.197Z,101078.52
2022-09-03T05:13:05.772Z,101076.98
2022-09-03T05:15:33.738Z,101078.54
2022-09-03T05:18:03.429Z,101078.92
2022-09-03T05:20:32.956Z,101077.81
2022-09-03T05:23:04.400Z,101077.57
2022-09-03T05:25:32.584Z,101077.96
2022-09-03T05:28:02.188Z,101079.23
2022-09-03T05:30:30.161Z,101081.53
2022-09-03T05:32:58.022Z,101081.73
2022-09-03T05:35:30.115Z,101085.83
2022-09-03T05:38:00.323Z,101083.83
2022-09-03T05:40:28.264Z,101082.17
2022-09-03T05:42:58.789Z,101085.94
2022-09-03T05:45:26.821Z,101078.16
2022-09-03T05:47:54.828Z,101073.25
2022-09-03T05:50:22.694Z,101075.81
2022-09-03T05:52:50.601Z,101070.20
2022-09-03T05:55:18.425Z,101071.09
2022-09-03T05:57:52.550Z,101072.27
2022-09-03T06:00:21.001Z,101074.00
2022-09-03T06:02:53.290Z,101078.44
2022-09-03T06:05:21.381Z,101075.73
2022-09-03T06:07:49.744Z,101072.16
2022-09-03T06:10:20.210Z,101073.89
2022-09-03T06:12:52.221Z,101068.77
2022-09-03T06:15:20.154Z,101066.90
2022-09-03T06:17:48.059Z,101067.73
2022-09-03T06:20:16.233Z,101067.90
2022-09-03T06:22:48.993Z,101071.45
2022-09-03T06:25:16.984Z,101077.08
2022-09-03T06:27:46.005Z,101076.37
2022-09-03T06:30:14.448Z,101070.86
2022-09-03T06:32:46.308Z,101072.17
2022-09-03T06:35:14.207Z,101075.52
2022-09-03T06:37:43.065Z,101073.92
2022-09-03T06:40:13.323Z,101073.84
2022-09-03T06:42:45.862Z,101074.80
2022-09-03T06:45:14.653Z,101072.14
2022-09-03T06:47:42.570Z,101072.90
2022-09-03T06:50:10.484Z,101075.02
2022-09-03T06:52:38.359Z,101075.94
2022-09-03T06:55:07.257Z,101077.05
2022-09-03T06:57:35.129Z,101077.44
2022-09-03T07:00:04.444Z,101073.54
2022-09-03T07:02:33.905Z,101067.08
2022-09-03T07:05:01.770Z,101065.05
2022-09-03T07:07:29.846Z,101067.79
2022-09-03T07:09:57.705Z,101070.20
2022-09-03T07:12:25.570Z,101073.61
2022-09-03T07:14:53.476Z,101071.04
2022-09-03T07:17:21.545Z,101077.88
2022-09-03T07:19:49.586Z,101072.91
2022-09-03T07:22:17.546Z,101073.24
2022-09-03T07:24:47.879Z,101072.35
2022-09-03T07:27:15.774Z,101077.77
2022-09-03T07:29:43.600Z,101081.84
2022-09-03T07:32:11.577Z,101081.96
2022-09-03T07:34:39.742Z,101083.92
2022-09-03T07:37:08.574Z,101084.05
2022-09-03T07:39:36.511Z,101087.23
2022-09-03T07:42:04.978Z,101086.80
2022-09-03T07:44:33.080Z,101078.48
2022-09-03T07:47:01.059Z,101081.13
2022-09-03T07:49:29.197Z,101080.50
2022-09-03T07:51:57.160Z,101077.28
2022-09-03T07:54:27.520Z,101075.80
2022-09-03T07:56:55.594Z,101077.89
2022-09-03T07:59:24.754Z,101084.61
2022-09-03T08:01:53.329Z,101082.59
2022-09-03T08:04:22.265Z,101079.91
2022-09-03T08:06:50.186Z,101083.39
2022-09-03T08:09:18.256Z,101084.62
2022-09-03T08:11:46.016Z,101078.09
2022-09-03T08:14:14.419Z,101078.41
2022-09-03T08:16:49.896Z,101080.83
2022-09-03T08:19:19.138Z,101079.63
2022-09-03T08:21:47.928Z,101076.80
2022-09-03T08:24:18.046Z,101074.38
2022-09-03T08:26:51.361Z,101073.34
2022-09-03T08:29:20.904Z,101074.02
2022-09-03T08:31:49.207Z,101072.24
2022-09-03T08:34:18.166Z,101068.07
2022-09-03T08:36:47.548Z,101072.88
2022-09-03T08:39:16.722Z,101069.23
2022-09-03T08:41:47.863Z,101073.83
2022-09-03T08:44:30.663Z,101075.02
2022-09-03T08:47:10.717Z,101072.42
2022-09-03T08:49:56.910Z,101071.01
2022-09-03T08:52:52.425Z,101064.48
2022-09-03T08:55:27.865Z,101056.88
2022-09-03T08:58:05.876Z,101054.81
2022-09-03T09:01:12.174Z,101052.23
2022-09-03T09:03:58.541Z,101052.41
2022-09-03T09:06:50.672Z,101056.63
2022-09-03T09:09:50.282Z,101055.02
2022-09-03T09:12:46.299Z,101049.08
2022-09-03T09:15:14.792Z,101046.98
2022-09-03T09:17:45.417Z,101049.34
2022-09-03T09:20:33.093Z,101057.56
2022-09-03T09:23:13.551Z,101058.70
2022-09-03T09:25:51.336Z,101054.89
2022-09-03T09:28:21.776Z,101055.48
2022-09-03T09:30:52.471Z,101055.00
2022-09-03T09:33:24.117Z,101056.65
2022-09-03T09:35:53.210Z,101058.63
2022-09-03T09:38:33.068Z,101051.34
2022-09-03T09:41:28.958Z,101052.20
2022-09-03T09:44:02.487Z,101050.74
2022-09-03T09:46:41.291Z,101050.78
2022-09-03T09:49:25.244Z,101050.13
2022-09-03T09:52:06.323Z,101046.29
2022-09-03T09:54:35.015Z,101045.80
2022-09-03T09:57:06.657Z,101054.16
2022-09-03T09:59:35.375Z,101051.77
2022-09-03T10:02:29.041Z,101047.06
2022-09-03T10:05:12.443Z,101045.27
2022-09-03T10:07:40.525Z,101046.98
2022-09-03T10:10:15.058Z,101043.50
2022-09-03T10:12:48.330Z,101043.70
2022-09-03T10:15:31.618Z,101039.94
2022-09-03T10:18:29.021Z,101037.58
2022-09-03T10:21:06.758Z,101035.48
2022-09-03T10:23:50.811Z,101037.84
2022-09-03T10:26:32.237Z,101031.63
2022-09-03T10:29:03.479Z,101031.86
2022-09-03T10:31:43.533Z,101033.25
2022-09-03T10:34:37.624Z,101030.47
2022-09-03T10:37:18.789Z,101021.88
2022-09-03T10:40:05.850Z,101014.26
2022-09-03T10:42:58.655Z,101016.83
2022-09-03T10:45:49.598Z,101014.48
2022-09-03T10:48:26.746Z,101019.59
2022-09-03T10:51:04.382Z,101012.27
2022-09-03T10:53:51.661Z,101009.43
2022-09-03T10:56:31.848Z,101011.79
2022-09-03T10:59:41.085Z,101013.30
2022-09-03T11:02:38.112Z,101003.16
2022-09-03T11:05:16.111Z,101000.13
2022-09-03T11:07:58.815Z,101000.21
2022-09-03T11:10:33.143Z,100998.30
2022-09-03T11:13:22.255Z,100992.19
2022-09-03T11:16:01.414Z,100990.46
2022-09-03T11:18:40.131Z,100990.83
2022-09-03T11:21:14.131Z,100995.88
2022-09-03T11:23:46.222Z,100995.86
2022-09-03T11:26:18.999Z,100992.27
2022-09-03T11:29:18.549Z,100990.91
2022-09-03T11:32:01.962Z,100989.71
2022-09-03T11:34:33.340Z,100993.71
2022-09-03T11:37:20.846Z,100991.29
2022-09-03T11:40:27.283Z,100984.69
2022-09-03T11:43:25.662Z,100986.55
2022-09-03T11:46:28.560Z,100986.87
2022-09-03T11:49:26.214Z,100981.66
2022-09-03T11:52:02.988Z,100977.99
2022-09-03T11:54:44.780Z,100977.52
2022-09-03T11:57:23.602Z,100972.89
2022-09-03T11:59:52.192Z,100964.83
2022-09-03T12:02:27.348Z,100965.09
2022-09-03T12:05:20.891Z,100960.73
2022-09-03T12:07:48.857Z,100959.25
2022-09-03T12:10:38.647Z,100957.23
2022-09-03T12:13:36.131Z,100953.44
2022-09-03T12:16:15.668Z,100949.55
2022-09-03T12:18:45.955Z,100950.14
2022-09-03T12:21:17.714Z,100949.47
2022-09-03T12:23:49.391Z,100945.55
2022-09-03T12:26:24.199Z,100938.63
2022-09-03T12:28:55.747Z,100932.73
2022-09-03T12:31:30.286Z,100938.57
2022-09-03T12:34:13.539Z,100936.29
2022-09-03T12:36:44.023Z,100930.20
2022-09-03T12:39:17.969Z,100931.43
2022-09-03T12:42:04.031Z,100929.00
2022-09-03T12:44:39.775Z,100920.27
2022-09-03T12:47:36.628Z,100920.21
2022-09-03T12:50:20.371Z,100920.10
2022-09-03T12:53:00.010Z,100916.83
2022-09-03T12:55:41.903Z,100912.83
2022-09-03T12:58:32.727Z,100911.13
2022-09-03T13:01:23.155Z,100908.86
2022-09-03T13:03:58.635Z,100904.36
2022-09-03T13:06:30.910Z,100901.73
2022-09-03T13:09:05.725Z,100903.83
2022-09-03T13:11:37.595Z,100904.61
2022-09-03T13:14:10.261Z,100899.40
2022-09-03T13:16:38.085Z,100895.88
2022-09-03T13:19:24.333Z,100896.99
2022-09-03T13:22:12.929Z,100893.85
2022-09-03T13:24:52.950Z,100892.61
2022-09-03T13:27:41.511Z,100889.61
2022-09-03T13:30:19.901Z,100890.62
2022-09-03T13:32:57.701Z,100891.93
2022-09-03T13:35:45.449Z,100893.09
2022-09-03T13:38:44.273Z,100890.26
2022-09-03T13:41:21.511Z,100889.45
2022-09-03T13:44:16.336Z,100888.48
2022-09-03T13:47:10.177Z,100887.83
2022-09-03T13:50:10.550Z,100883.77
2022-09-03T13:52:43.224Z,100881.94
2022-09-03T13:55:49.061Z,100875.62
2022-09-03T13:58:32.880Z,100873.96
2022-09-03T14:01:03.746Z,100877.73
2022-09-03T14:03:49.449Z,100877.80
2022-09-03T14:06:50.943Z,100879.86
2022-09-03T14:09:18.719Z,100880.02
2022-09-03T14:11:57.856Z,100881.01
2022-09-03T14:15:01.994Z,100877.98
2022-09-03T14:17:58.498Z,100873.94
2022-09-03T14:20:33.636Z,100873.84
2022-09-03T14:23:18.882Z,100872.44
2022-09-03T14:25:55.215Z,100874.66
2022-09-03T14:28:35.337Z,100872.51
2022-09-03T14:31:24.571Z,100873.36
2022-09-03T14:34:05.120Z,100867.48
2022-09-03T14:37:00.360Z,100869.95
2022-09-03T14:39:47.804Z,100869.22
2022-09-03T14:42:43.058Z,100869.16
2022-09-03T14:45:22.892Z,100872.23
2022-09-03T14:48:09.074Z,100868.04
2022-09-03T14:51:16.436Z,100866.10
2022-09-03T14:53:50.440Z,100864.20
2022-09-03T14:57:01.012Z,100860.57
2022-09-03T14:59:47.260Z,100864.13
2022-09-03T15:02:33.959Z,100867.52
2022-09-03T15:05:13.486Z,100864.77
2022-09-03T15:07:41.413Z,100868.33
2022-09-03T15:10:33.245Z,100863.52
2022-09-03T15:13:12.397Z,100865.51
2022-09-03T15:15:43.206Z,100863.79
2022-09-03T15:18:19.775Z,100865.77
2022-09-03T15:20:53.078Z,100866.36
2022-09-03T15:23:30.897Z,100868.29
2022-09-03T15:26:23.718Z,100867.70
2022-09-03T15:28:54.368Z,100867.77
2022-09-03T15:31:47.052Z,100865.92
2022-09-03T15:34:43.021Z,100864.98
2022-09-03T15:37:23.692Z,100869.32
2022-09-03T15:40:11.354Z,100865.92
2022-09-03T15:42:44.593Z,100869.20
2022-09-03T15:45:35.887Z,100870.90
2022-09-03T15:48:14.239Z,100868.77
2022-09-03T15:51:04.016Z,100872.48
2022-09-03T15:53:57.173Z,100870.14
2022-09-03T15:56:28.421Z,100874.09
2022-09-03T15:58:56.597Z,100876.45
2022-09-03T16:01:46.209Z,100880.12
2022-09-03T16:04:17.125Z,100877.15
2022-09-03T16:07:20.302Z,100873.15
2022-09-03T16:10:23.633Z,100875.06
2022-09-03T16:13:08.973Z,100877.72
2022-09-03T16:15:44.929Z,100877.08
2022-09-03T16:18:40.280Z,100880.95
2022-09-03T16:21:22.950Z,100883.39
2022-09-03T16:23:56.694Z,100881.41
2022-09-03T16:26:33.833Z,100878.39
2022-09-03T16:29:09.213Z,100879.80
2022-09-03T16:31:43.521Z,100879.02
2022-09-03T16:34:37.549Z,100878.70
2022-09-03T16:37:29.245Z,100878.40
2022-09-03T16:40:14.961Z,100876.40
2022-09-03T16:43:38.869Z,100879.88
2022-09-03T16:46:10.542Z,100880.40
2022-09-03T16:49:19.545Z,100882.80
2022-09-03T16:51:56.138Z,100885.86
2022-09-03T16:54:38.230Z,100885.16
2022-09-03T16:57:21.953Z,100886.85
2022-09-03T16:59:58.444Z,100884.22
2022-09-03T17:03:02.130Z,100889.23
2022-09-03T17:05:48.357Z,100886.70
2022-09-03T17:08:28.584Z,100884.27
2022-09-03T17:11:22.149Z,100886.26
2022-09-03T17:14:11.866Z,100888.95
2022-09-03T17:16:52.666Z,100891.83
2022-09-03T17:19:58.245Z,100897.04
2022-09-03T17:22:44.875Z,100898.58
2022-09-03T17:25:47.922Z,100899.39
2022-09-03T17:28:53.189Z,100904.95
2022-09-03T17:31:28.535Z,100905.48
2022-09-03T17:34:23.932Z,100906.17
2022-09-03T17:37:13.236Z,100914.46
2022-09-03T17:39:46.887Z,100918.25
2022-09-03T17:42:30.379Z,100922.98
2022-09-03T17:45:28.667Z,100925.98
2022-09-03T17:48:20.439Z,100929.30
2022-09-03T17:51:01.638Z,100929.71
2022-09-03T17:53:44.217Z,100933.34
2022-09-03T17:56:30.360Z,100929.09
2022-09-03T17:59:14.877Z,100932.88
2022-09-03T18:01:53.086Z,100932.70
2022-09-03T18:04:34.329Z,100931.66
2022-09-03T18:07:29.514Z,100935.81
2022-09-03T18:10:22.156Z,100936.04
2022-09-03T18:13:01.428Z,100933.97
2022-09-03T18:15:51.857Z,100933.75
2022-09-03T18:18:31.022Z,100934.60
2022-09-03T18:21:25.450Z,100933.89
2022-09-03T18:24:25.068Z,100932.48
2022-09-03T18:27:17.887Z,100932.24
2022-09-03T18:30:20.273Z,100932.83
2022-09-03T18:33:07.260Z,100934.98
2022-09-03T18:35:55.185Z,100936.08
2022-09-03T18:38:46.822Z,100938.70
2022-09-03T18:42:06.287Z,100936.02
2022-09-03T18:45:21.692Z,100939.89
2022-09-03T18:48:37.731Z,100938.76
2022-09-03T18:51:37.733Z,100941.89
2022-09-03T18:55:06.232Z,100933.70
2022-09-03T18:57:58.636Z,100934.27
2022-09-03T19:00:53.784Z,100938.60
2022-09-03T19:04:10.038Z,100944.63
2022-09-03T19:07:15.523Z,100945.88
2022-09-03T19:10:21.213Z,100944.70
2022-09-03T19:13:29.830Z,100948.32
2022-09-03T19:16:28.423Z,100947.84
2022-09-03T19:19:53.808Z,100950.45
2022-09-03T19:22:53.911Z,100951.49
2022-09-03T19:25:41.865Z,100949.79
2022-09-03T19:28:36.096Z,100956.48
2022-09-03T19:31:37.798Z,100960.08
2022-09-03T19:34:51.713Z,100957.73
2022-09-03T19:37:53.696Z,100954.98
2022-09-03T19:40:56.743Z,100956.89
2022-09-03T19:43:52.284Z,100954.84
2022-09-03T19:47:16.531Z,100950.40
2022-09-03T19:50:13.200Z,100953.33
2022-09-03T19:53:06.446Z,100951.63
2022-09-03T19:55:57.906Z,100948.20
2022-09-03T19:58:48.268Z,100944.96
2022-09-03T20:01:36.370Z,100943.42
2022-09-03T20:04:31.586Z,100949.25
2022-09-03T20:07:25.442Z,100953.36
2022-09-03T20:10:15.446Z,100953.36
2022-09-03T20:12:49.815Z,100955.41
2022-09-03T20:15:22.674Z,100955.75
2022-09-03T20:18:16.827Z,100954.55
2022-09-03T20:20:54.686Z,100958.32
2022-09-03T20:23:25.043Z,100961.73
2022-09-03T20:26:17.737Z,100961.73
2022-09-03T20:29:14.576Z,100964.79
2022-09-03T20:31:54.064Z,100963.60
2022-09-03T20:34:31.969Z,100962.05
2022-09-03T20:37:30.932Z,100959.81
2022-09-03T20:40:17.449Z,100960.84
2022-09-03T20:42:48.022Z,100960.98
2022-09-03T20:45:24.760Z,100966.09
2022-09-03T20:48:04.728Z,100970.02
2022-09-03T20:50:53.337Z,100973.07
2022-09-03T20:53:50.350Z,100972.38
2022-09-03T20:56:33.100Z,100970.33
2022-09-03T20:59:25.002Z,100976.64
2022-09-03T21:02:09.457Z,100976.11
2022-09-03T21:05:22.150Z,100978.31
2022-09-03T21:07:55.917Z,100974.02
2022-09-03T21:10:43.257Z,100978.13
2022-09-03T21:13:22.578Z,100979.48
2022-09-03T21:16:03.641Z,100980.66
2022-09-03T21:19:04.692Z,100987.31
2022-09-03T21:21:53.413Z,100984.57
2022-09-03T21:24:34.194Z,100985.27
2022-09-03T21:27:08.746Z,100990.38
2022-09-03T21:30:01.122Z,100986.09
2022-09-03T21:32:37.968Z,100985.21
2022-09-03T21:35:15.811Z,100982.13
2022-09-03T21:37:52.529Z,100985.87
2022-09-03T21:40:24.431Z,100985.85
2022-09-03T21:43:08.678Z,100984.81
2022-09-03T21:45:47.126Z,100987.54
2022-09-03T21:48:53.955Z,100991.63
2022-09-03T21:51:33.567Z,100993.65
2022-09-03T21:54:08.204Z,100992.58
2022-09-03T21:56:58.184Z,100993.77
2022-09-03T21:59:58.811Z,100994.64
2022-09-03T22:02:32.912Z,100994.79
2022-09-03T22:05:03.166Z,100992.91
2022-09-03T22:07:54.601Z,100994.27
2022-09-03T22:10:25.800Z,100993.93
2022-09-03T22:13:21.117Z,100993.73
2022-09-03T22:15:50.889Z,100997.83
2022-09-03T22:18:29.397Z,100999.89
2022-09-03T22:21:13.335Z,101001.26
2022-09-03T22:24:10.394Z,101003.64
2022-09-03T22:27:26.114Z,101000.73
2022-09-03T22:30:13.902Z,101000.54
2022-09-03T22:32:47.280Z,101002.58
2022-09-03T22:35:46.762Z,101000.84
2022-09-03T22:38:23.959Z,101005.27
2022-09-03T22:41:12.398Z,101005.59
2022-09-03T22:43:43.727Z,101010.52
2022-09-03T22:46:17.910Z,101011.86
2022-09-03T22:49:07.379Z,101013.40
2022-09-03T22:52:15.621Z,101012.35
2022-09-03T22:55:23.398Z,101016.55
2022-09-03T22:58:03.694Z,101019.58
2022-09-03T23:00:47.256Z,101015.27
2022-09-03T23:03:21.244Z,101017.13
2022-09-03T23:06:03.959Z,101017.95
2022-09-03T23:08:52.075Z,101021.67
2022-09-03T23:11:27.830Z,101024.00
2022-09-03T23:14:09.918Z,101028.38
2022-09-03T23:17:00.625Z,101033.61
2022-09-03T23:19:45.587Z,101040.00
2022-09-03T23:22:22.007Z,101046.41
2022-09-03T23:25:03.135Z,101043.92
2022-09-03T23:27:48.179Z,101045.08
2022-09-03T23:30:16.895Z,101044.70
2022-09-03T23:32:44.736Z,101048.55
2022-09-03T23:35:18.351Z,101053.62
2022-09-03T23:37:47.133Z,101056.16
2022-09-03T23:40:30.578Z,101059.37
2022-09-03T23:43:18.519Z,101058.44
2022-09-03T23:46:07.968Z,101060.77
2022-09-03T23:48:47.656Z,101066.33
2022-09-03T23:51:22.910Z,101065.43
2022-09-03T23:53:50.640Z,101066.05
2022-09-03T23:56:51.323Z,101067.67
2022-09-03T23:59:31.276Z,101065.36
